Time;durP1;ratioP1;P1;durP2;ratioP2;P2;SDS_P1;SDS_P2;PMS_P1;PMS_P2;Temp;Humidity;BMP_temperature;BMP_pressure;BME280_temperature;BME280_humidity;BME280_pressure;Samples;Min_cycle;Max_cycle;Signal;HPM_P1;HPM_P2
2022/04/12 00:00:33;;;;;;;8.35;3.17;;;11.00;75.00;;;9.34;63.57;100188.06;4991963;28;20141;-78
2022/04/12 00:03:01;;;;;;;6.13;3.75;;;11.00;75.00;;;9.28;63.57;100186.09;4992703;28;20085;-77
2022/04/12 00:05:30;;;;;;;9.65;4.00;;;10.90;75.10;;;9.29;63.46;100184.22;4991371;28;20467;-78
2022/04/12 00:07:57;;;;;;;7.22;4.00;;;10.90;75.00;;;9.29;63.85;100181.50;4991085;28;20531;-78
2022/04/12 00:10:24;;;;;;;8.20;4.00;;;10.90;76.10;;;9.29;64.15;100186.94;4990422;28;20133;-78
2022/04/12 00:12:52;;;;;;;6.65;3.55;;;10.90;76.10;;;9.28;64.13;100179.84;4992328;28;20046;-77
2022/04/12 00:15:19;;;;;;;9.10;3.97;;;10.90;76.00;;;9.31;64.12;100182.16;4992709;28;20695;-78
2022/04/12 00:20:32;;;;;;;8.70;4.00;;;10.90;76.50;;;9.28;64.42;100174.41;4991607;28;20086;-78
2022/04/12 00:23:00;;;;;;;8.00;3.70;;;10.90;76.10;;;9.26;64.39;100171.88;4992235;28;20045;-78
2022/04/12 00:25:28;;;;;;;7.22;3.65;;;10.90;76.60;;;9.25;64.52;100170.16;4992162;28;20057;-78
2022/04/12 00:27:58;;;;;;;6.47;3.60;;;10.80;76.70;;;9.23;64.71;100171.38;4992013;28;20053;-78
2022/04/12 00:30:28;;;;;;;7.30;3.50;;;10.80;77.00;;;9.19;65.21;100170.91;4989952;28;20141;-78
2022/04/12 00:35:26;;;;;;;10.60;4.15;;;10.80;77.20;;;9.14;65.19;100167.94;4951726;28;20059;-77
2022/04/12 00:37:55;;;;;;;9.32;3.83;;;10.80;77.80;;;9.11;65.34;100158.25;4953813;29;20047;-77
2022/04/12 00:40:25;;;;;;;7.88;3.70;;;10.60;77.10;;;9.11;65.64;100154.72;4952834;29;20083;-77
2022/04/12 00:42:53;;;;;;;6.97;3.75;;;10.70;77.60;;;9.08;65.25;100155.94;4953361;28;20081;-77
2022/04/12 00:45:21;;;;;;;8.15;3.67;;;10.70;77.60;;;9.08;65.32;100153.22;4953563;28;20051;-77
2022/04/12 00:47:49;;;;;;;7.82;4.13;;;10.70;77.50;;;9.09;65.19;100148.63;4953593;29;20512;-77
2022/04/12 00:50:16;;;;;;;9.05;4.05;;;10.70;77.50;;;9.07;65.61;100150.69;4952440;28;20712;-77
2022/04/12 00:52:48;;;;;;;6.57;3.88;;;10.70;77.70;;;9.01;66.16;100146.81;4953380;29;20036;-77
2022/04/12 00:55:18;;;;;;;7.45;3.88;;;10.60;77.90;;;9.00;65.64;100151.41;4953348;29;20066;-77
2022/04/12 00:57:47;;;;;;;10.70;4.47;;;10.60;78.40;;;8.98;66.27;100145.31;4953103;29;20047;-77
2022/04/12 01:00:17;;;;;;;9.50;3.63;;;10.60;79.00;;;8.98;66.18;100142.59;4952181;28;20050;-77
2022/04/12 01:02:45;;;;;;;8.38;4.35;;;10.60;78.80;;;8.97;66.62;100137.38;4953318;28;20647;-77
2022/04/12 01:05:12;;;;;;;8.20;4.13;;;10.60;78.60;;;8.94;66.61;100141.28;4952924;28;20133;-77
2022/04/12 01:07:40;;;;;;;8.10;3.97;;;10.60;78.90;;;8.92;66.67;100140.63;4952504;28;20047;-77
2022/04/12 01:10:09;;;;;;;7.68;3.88;;;10.60;78.90;;;8.93;66.94;100144.16;4952133;29;20053;-77
2022/04/12 01:12:39;;;;;;;8.70;4.43;;;10.50;78.80;;;8.90;66.63;100139.94;4952991;28;20050;-77
2022/04/12 01:15:19;;;;;;;6.68;3.80;;;10.50;78.40;;;8.90;67.23;100137.25;4952949;28;20043;-77
2022/04/12 01:17:48;;;;;;;7.78;4.05;;;10.50;79.10;;;8.91;67.10;100133.50;4952759;28;20047;-77
2022/04/12 01:20:17;;;;;;;9.82;4.07;;;10.50;79.10;;;8.93;66.68;100131.47;4952057;28;20051;-77
2022/04/12 01:22:53;;;;;;;9.13;4.43;;;10.50;78.60;;;8.93;66.80;100131.47;4952701;29;20043;-77
2022/04/12 01:25:23;;;;;;;10.23;4.15;;;10.50;79.20;;;8.92;67.30;100118.91;4952625;28;20082;-77
2022/04/12 01:27:50;;;;;;;8.25;4.40;;;10.50;79.40;;;8.89;67.16;100132.84;4952630;29;20047;-77
2022/04/12 01:30:18;;;;;;;8.63;4.18;;;10.50;79.40;;;8.87;67.10;100131.34;4951729;28;20047;-77
2022/04/12 01:32:45;;;;;;;9.23;4.03;;;10.40;79.50;;;8.87;67.48;100129.50;4952621;29;20043;-77
2022/04/12 01:35:12;;;;;;;7.43;3.97;;;10.50;79.40;;;8.85;67.38;100114.41;4952386;28;20523;-77
2022/04/12 01:37:39;;;;;;;8.35;4.28;;;10.40;80.00;;;8.81;67.82;100116.63;4952493;28;20130;-77
2022/04/12 01:40:09;;;;;;;8.13;4.05;;;10.40;79.80;;;8.80;67.42;100117.66;4951655;29;20071;-77
2022/04/12 01:42:38;;;;;;;7.50;4.38;;;10.40;80.50;;;8.80;67.80;100112.25;4952641;28;20098;-77
2022/04/12 01:45:07;;;;;;;6.47;3.90;;;10.30;80.30;;;8.77;67.60;100099.03;4952455;28;20051;-77
2022/04/12 01:47:36;;;;;;;7.38;4.00;;;10.30;80.00;;;8.77;67.94;100107.16;4952300;29;20471;-77
2022/04/12 01:50:03;;;;;;;7.68;4.10;;;10.50;80.00;;;8.75;67.93;100104.63;4951386;29;20295;-77
2022/04/12 01:52:31;;;;;;;9.20;4.20;;;10.30;80.30;;;8.76;67.71;100113.63;4952387;29;20047;-77
2022/04/12 01:54:58;;;;;;;7.90;4.32;;;10.30;79.90;;;8.67;68.42;100106.59;4952344;28;20554;-77
2022/04/12 01:57:25;;;;;;;6.78;3.83;;;10.20;80.40;;;8.61;68.47;100098.16;4952166;29;20051;-77
2022/04/12 01:59:54;;;;;;;7.10;4.20;;;10.20;81.20;;;8.58;69.17;100103.09;4951378;29;20047;-77
2022/04/12 02:02:21;;;;;;;10.27;3.83;;;10.20;81.50;;;8.54;69.01;100105.31;4952215;29;20690;-77
2022/04/12 02:04:48;;;;;;;8.27;4.63;;;10.10;81.60;;;8.49;69.51;100099.63;4951968;28;20053;-77
2022/04/12 02:07:15;;;;;;;8.07;4.10;;;10.10;82.00;;;8.46;69.99;100104.56;4952031;29;20051;-77
2022/04/12 02:09:43;;;;;;;9.07;4.65;;;10.10;82.20;;;8.46;69.89;100097.25;4951374;29;20047;-77
2022/04/12 02:12:11;;;;;;;8.02;3.83;;;10.00;82.20;;;8.44;69.68;100102.03;4951642;29;20053;-77
2022/04/12 02:14:38;;;;;;;6.82;4.10;;;10.00;82.00;;;8.41;69.92;100097.81;4951963;28;20496;-77
2022/04/12 02:17:07;;;;;;;8.15;4.20;;;10.00;82.20;;;8.42;69.83;100098.66;4952000;28;20051;-77
2022/04/12 02:19:34;;;;;;;7.80;3.90;;;10.00;82.40;;;8.39;69.80;100088.94;4951989;28;20077;-77
2022/04/12 02:22:02;;;;;;;8.13;3.75;;;9.90;82.50;;;8.36;70.61;100091.22;4951331;29;20551;-77
2022/04/12 02:24:30;;;;;;;9.90;4.50;;;9.90;82.90;;;8.32;70.82;100084.44;4951843;28;20047;-77
2022/04/12 02:26:57;;;;;;;5.88;3.65;;;9.90;83.10;;;8.32;70.72;100079.00;4952017;29;20081;-77
2022/04/12 02:29:24;;;;;;;8.35;4.30;;;9.90;83.50;;;8.31;71.34;100086.31;4951717;28;20118;-77
2022/04/12 02:31:52;;;;;;;8.50;4.20;;;9.90;83.90;;;8.27;71.66;100087.69;4950658;29;20134;-77
2022/04/12 02:34:20;;;;;;;7.55;4.20;;;9.80;83.60;;;8.26;71.35;100082.44;4951595;28;20047;-77
2022/04/12 02:36:48;;;;;;;7.93;4.22;;;9.80;83.90;;;8.26;70.96;100082.44;4951762;28;20043;-77
2022/04/12 02:39:16;;;;;;;8.23;4.25;;;9.90;84.10;;;8.22;71.64;100093.69;4951514;28;20047;-77
2022/04/12 02:41:43;;;;;;;6.72;3.88;;;9.80;83.60;;;8.21;71.60;100094.69;4950826;29;20559;-77
2022/04/12 02:44:11;;;;;;;6.63;3.90;;;9.80;83.70;;;8.23;71.74;100089.09;4951597;28;20134;-77
2022/04/12 02:46:38;;;;;;;8.00;4.10;;;9.80;83.90;;;8.27;71.79;100086.88;4951731;29;20051;-77
2022/04/12 02:49:05;;;;;;;6.68;4.00;;;9.80;84.20;;;8.30;72.16;100079.22;4951490;29;20424;-77
2022/04/12 02:51:33;;;;;;;8.90;4.25;;;9.80;84.00;;;8.33;71.91;100081.56;4950797;29;20054;-77
2022/04/12 02:54:01;;;;;;;8.45;4.13;;;9.80;84.30;;;8.35;71.81;100076.78;4951685;28;20054;-77
2022/04/12 02:56:28;;;;;;;7.15;4.07;;;9.90;84.40;;;8.39;71.86;100077.28;4950272;28;20130;-77
2022/04/12 02:58:55;;;;;;;7.28;4.15;;;9.90;84.10;;;8.48;71.56;100072.66;4951327;29;20046;-77
2022/04/12 03:01:22;;;;;;;7.85;3.90;;;10.00;83.20;;;8.57;70.84;100069.72;4950428;28;20460;-77
2022/04/12 03:03:50;;;;;;;7.43;3.70;;;10.10;82.00;;;8.66;70.67;100075.06;4951682;28;20051;-77
2022/04/12 03:06:17;;;;;;;10.73;4.20;;;10.20;80.90;;;8.76;68.66;100078.38;4951366;29;20527;-77
2022/04/12 03:08:46;;;;;;;7.07;4.22;;;10.30;79.10;;;8.84;67.53;100072.84;4949974;28;20637;-77
2022/04/12 03:11:13;;;;;;;9.43;4.28;;;10.40;77.90;;;8.91;67.30;100068.38;4950378;29;20074;-77
2022/04/12 03:13:40;;;;;;;6.82;3.30;;;10.40;77.40;;;8.99;66.32;100064.75;4951236;28;20461;-77
2022/04/12 03:16:07;;;;;;;7.50;3.50;;;10.50;76.60;;;9.03;66.83;100073.38;4951213;28;20047;-77
2022/04/12 03:18:35;;;;;;;9.60;4.30;;;10.60;77.40;;;9.07;66.58;100080.09;4951241;29;20055;-77
2022/04/12 03:21:02;;;;;;;7.50;4.38;;;10.60;76.30;;;9.14;64.75;100075.63;4950625;29;20138;-77
2022/04/12 03:23:29;;;;;;;10.45;4.32;;;10.70;74.80;;;9.20;64.57;100078.41;4951310;28;20567;-77
2022/04/12 03:25:58;;;;;;;9.20;3.75;;;10.80;74.80;;;9.23;64.49;100071.75;4951342;28;20059;-77
2022/04/12 03:28:25;;;;;;;7.32;3.63;;;10.90;75.30;;;9.25;64.96;100072.41;4951387;29;20138;-77
2022/04/12 03:30:52;;;;;;;7.97;4.05;;;10.90;75.40;;;9.27;63.86;100056.81;4953234;28;20102;-76
2022/04/12 03:33:19;;;;;;;8.77;3.75;;;10.90;74.30;;;9.36;62.89;100063.81;4954657;28;20107;-77
2022/04/12 03:35:47;;;;;;;8.05;4.07;;;11.00;73.70;;;9.40;63.14;100056.13;4954701;29;20126;-77
2022/04/12 03:38:16;;;;;;;6.53;3.85;;;11.00;73.50;;;9.42;64.10;100055.94;4954516;29;20051;-77
2022/04/12 03:40:46;;;;;;;7.47;3.53;;;11.10;74.40;;;9.43;63.95;100052.22;4953684;28;20385;-77
2022/04/12 03:43:15;;;;;;;6.63;3.80;;;11.10;74.80;;;9.44;63.87;100049.28;4954389;28;20044;-77
2022/04/12 03:45:42;;;;;;;8.40;4.25;;;11.10;74.50;;;9.44;64.91;100051.16;4954632;29;20497;-77
2022/04/12 03:48:09;;;;;;;8.95;4.15;;;11.10;75.60;;;9.45;64.18;100052.84;4954259;28;20078;-77
2022/04/12 03:50:36;;;;;;;7.82;3.75;;;11.10;74.80;;;9.45;64.89;100045.53;4953602;28;20512;-77
2022/04/12 03:53:04;;;;;;;6.22;3.40;;;11.00;75.60;;;9.44;65.48;100046.56;4954331;28;20047;-77
2022/04/12 03:55:31;;;;;;;9.57;3.88;;;11.10;76.30;;;9.45;65.37;100055.56;4954585;29;20043;-77
2022/04/12 03:57:59;;;;;;;7.15;3.67;;;11.10;76.60;;;9.43;65.94;100054.94;4954378;28;20047;-77
2022/04/12 04:00:29;;;;;;;6.93;4.00;;;11.10;76.40;;;9.44;65.91;100060.13;4953641;28;20055;-77
2022/04/12 04:02:57;;;;;;;6.80;3.42;;;11.10;76.90;;;9.44;65.75;100052.00;4954423;28;20090;-77
2022/04/12 04:05:25;;;;;;;6.78;3.88;;;11.10;76.30;;;9.43;66.09;100046.78;4954019;29;20051;-77
2022/04/12 04:07:53;;;;;;;6.68;3.88;;;11.10;77.40;;;9.41;66.34;100040.69;4954081;29;20094;-77
2022/04/12 04:10:21;;;;;;;7.63;3.33;;;11.00;78.20;;;9.39;66.84;100019.16;4953292;28;20051;-77
2022/04/12 04:12:48;;;;;;;9.15;3.33;;;11.00;77.80;;;9.39;66.50;100033.56;4954073;29;20053;-77
2022/04/12 04:15:16;;;;;;;6.68;3.90;;;11.20;77.60;;;9.43;65.85;100034.03;4953999;29;20047;-77
2022/04/12 04:17:45;;;;;;;8.48;3.40;;;11.10;76.90;;;9.49;66.09;100032.44;4953871;28;20567;-77
2022/04/12 04:20:15;;;;;;;6.90;3.60;;;11.10;76.70;;;9.50;66.36;100036.81;4952873;28;20110;-77
2022/04/12 04:22:45;;;;;;;8.63;3.90;;;11.10;76.20;;;9.54;65.11;100036.25;4953765;29;20802;-77
2022/04/12 04:25:16;;;;;;;7.50;3.97;;;11.10;75.20;;;9.57;64.19;100029.59;4953737;28;20126;-77
2022/04/12 04:27:44;;;;;;;7.20;4.10;;;11.20;74.70;;;9.62;64.27;100031.75;4953910;28;20075;-77
2022/04/12 04:30:13;;;;;;;9.07;3.70;;;11.20;74.20;;;9.66;64.26;100035.78;4953288;29;20046;-77
2022/04/12 04:32:41;;;;;;;7.43;4.13;;;11.30;73.60;;;9.71;63.30;100028.75;4953697;29;20424;-77
2022/04/12 04:35:10;;;;;;;8.88;4.18;;;11.30;73.50;;;9.75;63.31;100030.03;4953820;28;20868;-77
2022/04/12 04:37:44;;;;;;;12.48;4.10;;;11.30;73.00;;;9.76;62.94;100028.16;4953532;29;20043;-77
2022/04/12 04:40:14;;;;;;;7.82;3.90;;;11.40;73.90;;;9.77;62.21;100019.81;4952712;28;20044;-77
2022/04/12 04:42:42;;;;;;;8.13;4.40;;;11.40;73.40;;;9.78;62.77;100021.47;4952725;29;20051;-77
2022/04/12 04:45:10;;;;;;;10.23;4.40;;;11.40;73.40;;;9.80;62.80;100026.72;4953306;28;20098;-77
2022/04/12 04:47:50;;;;;;;7.10;3.80;;;11.50;73.10;;;9.82;62.64;100030.09;4953289;29;20050;-77
2022/04/12 04:50:20;;;;;;;9.88;4.03;;;11.40;73.20;;;9.85;61.95;100034.31;4952474;29;20372;-77
2022/04/12 04:52:48;;;;;;;10.80;4.07;;;11.40;72.80;;;9.88;61.82;100039.38;4953220;29;20122;-77
2022/04/12 04:55:16;;;;;;;8.68;4.00;;;11.50;72.60;;;9.89;62.31;100038.34;4953157;28;20051;-77
2022/04/12 04:57:45;;;;;;;8.30;3.40;;;11.50;72.80;;;9.90;62.51;100053.59;4953043;29;20112;-77
2022/04/12 05:00:15;;;;;;;6.65;3.83;;;11.60;73.20;;;9.89;62.27;100055.47;4952568;28;20042;-77
2022/04/12 05:02:44;;;;;;;8.77;3.75;;;11.60;73.30;;;9.90;62.62;100053.59;4951960;28;20480;-77
2022/04/12 05:05:12;;;;;;;7.80;3.70;;;11.60;73.50;;;9.90;63.00;100042.72;4953066;28;20062;-77
2022/04/12 05:07:44;;;;;;;8.65;3.90;;;11.60;73.60;;;9.91;62.90;100049.88;4953360;28;20128;-77
2022/04/12 05:10:15;;;;;;;7.55;3.50;;;11.60;73.60;;;9.90;63.37;100048.16;4952262;29;20147;-77
2022/04/12 05:12:43;;;;;;;18.60;4.32;;;11.60;74.00;;;9.92;63.32;100055.13;4953123;29;20505;-77
2022/04/12 05:15:11;;;;;;;6.68;3.60;;;11.60;74.00;;;9.95;63.46;100043.00;4952868;28;20050;-77
2022/04/12 05:17:39;;;;;;;6.43;3.55;;;11.60;74.00;;;10.01;63.10;100049.53;4952907;29;20082;-77
2022/04/12 05:20:09;;;;;;;7.50;3.33;;;11.60;73.90;;;10.07;62.89;100048.78;4951811;29;20697;-77
2022/04/12 05:22:36;;;;;;;8.52;3.28;;;11.70;73.90;;;10.08;63.04;100051.31;4951265;28;20059;-77
2022/04/12 05:25:06;;;;;;;8.95;3.25;;;11.70;73.90;;;10.11;63.01;100052.78;4952486;28;20567;-77
2022/04/12 05:27:33;;;;;;;5.45;2.85;;;11.70;73.80;;;10.15;62.97;100048.66;4952631;28;20595;-77
2022/04/12 05:30:01;;;;;;;6.32;3.00;;;11.70;73.80;;;10.15;63.47;100052.22;4951826;29;20400;-78
2022/04/12 05:32:29;;;;;;;6.13;3.13;;;11.70;74.80;;;10.14;63.61;100050.53;4952692;28;20138;-77
2022/04/12 05:34:56;;;;;;;5.78;3.20;;;11.70;74.90;;;10.12;63.70;100049.88;4952472;28;20050;-78
2022/04/12 05:37:23;;;;;;;7.43;2.80;;;11.70;75.00;;;10.16;63.65;100053.88;4952701;29;20043;-77
2022/04/12 05:39:50;;;;;;;8.85;2.85;;;11.70;74.90;;;10.21;63.91;100049.78;4951594;28;20133;-78
2022/04/12 05:42:19;;;;;;;7.00;2.78;;;11.80;75.10;;;10.28;63.94;100058.81;4952418;28;20129;-78
2022/04/12 05:44:47;;;;;;;6.45;2.90;;;11.80;75.00;;;10.35;63.54;100043.44;4952282;28;20087;-78
2022/04/12 05:47:15;;;;;;;8.60;2.63;;;11.80;74.40;;;10.42;63.52;100051.69;4952403;28;20508;-78
2022/04/12 05:49:43;;;;;;;5.22;2.75;;;11.90;74.70;;;10.53;63.51;100053.88;4951662;29;20078;-78
2022/04/12 05:52:10;;;;;;;5.18;2.50;;;12.00;74.60;;;10.63;63.27;100051.66;4951747;28;20047;-78
2022/04/12 05:54:37;;;;;;;5.82;2.83;;;12.10;74.60;;;10.76;62.97;100054.47;4952332;28;20085;-78
2022/04/12 05:57:05;;;;;;;4.90;2.75;;;12.20;74.40;;;10.88;62.92;100052.06;4952219;28;20538;-78
2022/04/12 05:59:34;;;;;;;6.28;2.80;;;12.20;74.30;;;10.96;62.99;100048.34;4952064;29;20082;-78
2022/04/12 06:02:01;;;;;;;5.60;3.00;;;12.40;74.60;;;11.02;62.31;100049.41;4951460;29;20142;-78
2022/04/12 06:04:28;;;;;;;5.65;2.63;;;12.30;73.60;;;11.04;62.12;100055.50;4952018;28;20070;-78
2022/04/12 06:06:55;;;;;;;7.25;2.92;;;12.40;73.30;;;11.09;62.22;100058.47;4952182;28;20117;-78
2022/04/12 06:09:23;;;;;;;5.30;2.85;;;12.50;73.90;;;11.14;61.92;100062.28;4951977;29;20051;-78
2022/04/12 06:11:50;;;;;;;6.30;2.75;;;12.50;73.10;;;11.20;62.04;100055.22;4951313;28;20488;-78
2022/04/12 06:14:17;;;;;;;11.02;2.90;;;12.60;73.40;;;11.27;61.61;100064.28;4951859;28;20043;-78
2022/04/12 06:16:46;;;;;;;7.18;2.88;;;12.60;73.40;;;11.33;61.75;100077.09;4952069;28;20055;-78
2022/04/12 06:19:13;;;;;;;5.75;2.60;;;12.70;73.40;;;11.34;61.66;100065.13;4951804;28;20126;-78
2022/04/12 06:21:40;;;;;;;5.63;3.03;;;12.70;73.10;;;11.36;61.36;100067.66;4951337;29;20051;-78
2022/04/12 06:24:08;;;;;;;6.57;2.80;;;12.80;72.50;;;11.38;61.04;100064.72;4951962;28;20078;-78
2022/04/12 06:26:35;;;;;;;6.07;3.10;;;12.70;72.00;;;11.42;61.20;100063.28;4951969;29;20074;-78
2022/04/12 06:29:02;;;;;;;6.95;3.10;;;12.90;72.40;;;11.48;61.32;100063.34;4951795;29;20055;-77
2022/04/12 06:31:30;;;;;;;6.15;3.03;;;12.80;72.70;;;11.58;61.66;100062.97;4949478;28;20043;-78
2022/04/12 06:33:58;;;;;;;5.97;2.75;;;12.90;73.00;;;11.72;61.10;100053.78;4980650;23;20133;-79
2022/04/12 06:36:25;;;;;;;6.45;3.10;;;12.90;73.00;;;11.90;60.95;100049.72;5008544;28;20128;-79
2022/04/12 06:38:54;;;;;;;8.73;2.92;;;13.00;72.20;;;12.08;59.82;100068.22;5009666;28;20107;-79
2022/04/12 06:41:21;;;;;;;11.98;3.67;;;13.10;71.80;;;12.21;59.95;100053.78;5008991;28;20049;-79
2022/04/12 06:43:49;;;;;;;5.85;3.03;;;13.20;72.00;;;12.30;59.91;100055.25;5004614;28;20503;-79
2022/04/12 06:46:16;;;;;;;8.20;3.60;;;13.30;72.50;;;12.37;59.52;100050.63;4990349;28;20082;-79
2022/04/12 06:48:43;;;;;;;7.00;3.75;;;13.30;71.80;;;12.42;59.07;100048.13;4989995;28;20053;-78
2022/04/12 06:51:12;;;;;;;6.60;3.17;;;13.40;71.10;;;12.50;58.71;100042.47;4989203;28;20046;-78
2022/04/12 06:53:39;;;;;;;6.30;3.33;;;13.40;71.30;;;12.62;58.78;100037.22;4988629;28;20050;-79
2022/04/12 06:56:07;;;;;;;5.95;3.10;;;13.50;71.20;;;12.68;58.20;100041.00;4988676;28;20054;-79
2022/04/12 06:58:34;;;;;;;5.97;3.30;;;13.60;70.60;;;12.79;58.47;100043.09;4989956;28;20283;-79
2022/04/12 07:01:01;;;;;;;9.75;3.60;;;13.80;71.40;;;12.89;58.65;100040.78;4989072;28;20117;-79
2022/04/12 07:03:29;;;;;;;7.53;3.53;;;13.80;71.30;;;13.01;58.13;100034.69;4989689;28;20129;-79
2022/04/12 07:05:57;;;;;;;5.43;3.00;;;13.90;71.00;;;13.09;58.28;100034.44;4992975;28;20097;-79
2022/04/12 07:08:25;;;;;;;5.20;3.25;;;14.00;70.30;;;13.19;57.48;100032.09;4993756;28;20050;-79
2022/04/12 07:10:53;;;;;;;6.97;3.55;;;14.10;70.20;;;13.22;56.79;100033.59;4992651;28;20132;-79
2022/04/12 07:13:20;;;;;;;6.28;3.25;;;14.20;69.00;;;13.32;57.05;100038.63;4993598;28;20081;-79
2022/04/12 07:15:47;;;;;;;8.02;3.35;;;14.20;69.50;;;13.39;57.05;100037.56;4993628;28;20149;-79
2022/04/12 07:18:14;;;;;;;7.13;3.33;;;14.30;69.30;;;13.50;57.56;100038.81;4993675;28;20138;-79
2022/04/12 07:20:42;;;;;;;8.45;3.30;;;14.40;70.90;;;13.67;57.58;100042.72;4992732;28;20054;-79
2022/04/12 07:23:09;;;;;;;5.85;3.10;;;14.50;70.90;;;13.74;56.34;100052.78;4993552;28;20161;-79
2022/04/12 07:25:38;;;;;;;5.97;3.20;;;14.60;68.10;;;13.77;56.66;100045.00;4993391;28;20046;-79
2022/04/12 07:28:06;;;;;;;5.50;2.92;;;14.70;69.10;;;13.87;56.37;100050.81;4993379;28;20128;-79
2022/04/12 07:30:33;;;;;;;7.40;3.30;;;14.80;69.20;;;13.97;55.92;100044.06;4992447;28;20042;-79
2022/04/12 07:33:00;;;;;;;6.22;2.78;;;14.90;68.70;;;14.06;55.40;100045.47;4993016;28;20050;-79
2022/04/12 07:35:27;;;;;;;5.72;2.92;;;14.90;67.80;;;14.13;55.69;100045.47;4993081;28;20518;-79
2022/04/12 07:37:55;;;;;;;5.88;2.90;;;15.00;68.60;;;14.23;55.63;100037.59;4991776;28;20074;-79
2022/04/12 07:40:22;;;;;;;7.05;3.00;;;15.10;68.40;;;14.38;55.63;100040.03;4992172;28;20108;-79
2022/04/12 07:42:51;;;;;;;7.03;2.80;;;15.20;69.00;;;14.45;54.91;100058.09;4993104;28;20810;-79
2022/04/12 07:45:18;;;;;;;9.27;2.90;;;15.30;67.10;;;14.55;54.13;100051.28;4992973;28;20038;-79
2022/04/12 07:47:46;;;;;;;11.02;3.13;;;15.40;66.90;;;14.64;54.61;100045.34;4992907;28;20050;-79
2022/04/12 07:50:14;;;;;;;8.93;2.80;;;15.40;68.00;;;14.74;54.78;100044.81;4992209;28;20465;-79
2022/04/12 07:52:41;;;;;;;8.88;3.30;;;15.50;68.10;;;14.86;55.03;100036.72;4992837;28;20133;-79
2022/04/12 07:55:09;;;;;;;6.40;2.78;;;15.70;68.60;;;14.97;54.80;100030.50;4991630;28;20054;-79
2022/04/12 07:57:36;;;;;;;7.35;2.80;;;15.80;67.60;;;15.08;54.82;100039.03;4992920;28;20096;-79
2022/04/12 08:00:07;;;;;;;5.28;2.60;;;15.90;68.10;;;15.11;54.60;100031.19;4992127;28;20111;-79
2022/04/12 08:02:39;;;;;;;5.95;2.47;;;15.90;66.80;;;15.17;53.51;100035.78;4992768;28;20043;-79
2022/04/12 08:05:07;;;;;;;5.10;2.50;;;16.00;65.80;;;15.27;54.14;100038.00;4992292;28;20042;-79
2022/04/12 08:07:35;;;;;;;6.55;2.65;;;16.10;67.20;;;15.34;53.62;100043.41;4992620;28;20565;-79
2022/04/12 08:10:02;;;;;;;5.50;2.30;;;16.10;65.90;;;15.38;53.18;100041.88;4991734;28;20050;-79
2022/04/12 08:12:29;;;;;;;6.20;2.47;;;16.20;65.60;;;15.37;52.84;100015.53;4990814;28;20046;-79
2022/04/12 08:14:57;;;;;;;5.45;2.17;;;16.20;64.90;;;15.41;52.78;100030.47;4992204;28;20049;-79
2022/04/12 08:17:25;;;;;;;4.72;1.98;;;16.20;65.20;;;15.45;53.04;100024.28;4990925;28;20054;-79
2022/04/12 08:19:52;;;;;;;6.38;2.13;;;16.30;65.70;;;15.45;51.95;100018.78;4991496;28;20042;-79
2022/04/12 08:22:20;;;;;;;9.13;1.77;;;16.30;64.70;;;15.43;52.21;100009.13;4992356;28;20446;-79
2022/04/12 08:24:47;;;;;;;7.20;1.90;;;16.30;64.40;;;15.47;52.46;100015.84;4992296;28;20689;-79
2022/04/12 08:27:14;;;;;;;4.18;1.80;;;16.40;65.00;;;15.52;53.02;100018.72;4992420;28;20117;-79
2022/04/12 08:29:41;;;;;;;7.03;1.88;;;16.40;65.70;;;15.57;52.76;100016.16;4991952;28;20057;-79
2022/04/12 08:32:09;;;;;;;6.13;1.63;;;16.50;65.10;;;15.62;52.52;100009.97;4991547;28;20129;-79
2022/04/12 08:34:38;;;;;;;8.43;2.20;;;16.50;65.20;;;15.70;52.87;100008.81;4992121;28;20144;-79
2022/04/12 08:37:06;;;;;;;5.03;1.92;;;16.50;65.30;;;15.74;52.63;100010.03;4992157;28;20056;-79
2022/04/12 08:39:33;;;;;;;4.55;1.67;;;16.60;65.40;;;15.76;51.82;100013.38;4991915;28;20050;-79
2022/04/12 08:42:03;;;;;;;8.27;1.73;;;16.60;64.10;;;15.80;51.96;100017.34;4991600;28;20125;-79
2022/04/12 08:44:33;;;;;;;9.90;2.20;;;16.60;64.70;;;15.82;52.49;100016.06;4991895;28;20047;-79
2022/04/12 08:47:05;;;;;;;6.07;1.80;;;16.70;65.90;;;15.89;52.55;100018.69;4991761;28;20458;-79
2022/04/12 08:49:32;;;;;;;5.93;1.95;;;16.70;65.80;;;15.93;52.14;100011.69;4991772;28;20476;-79
2022/04/12 08:52:01;;;;;;;4.65;1.90;;;16.80;65.10;;;15.97;52.48;100014.78;4990794;28;20039;-79
2022/04/12 08:54:29;;;;;;;4.53;1.70;;;16.80;65.20;;;15.99;52.88;100012.66;4991663;28;20132;-79
2022/04/12 08:56:57;;;;;;;8.38;2.83;;;16.90;65.90;;;16.01;53.29;100005.03;4991844;28;20043;-79
2022/04/12 08:59:26;;;;;;;4.43;1.85;;;16.90;66.40;;;16.12;53.13;100006.97;4991630;28;20105;-79
2022/04/12 09:01:54;;;;;;;6.22;2.03;;;17.00;66.30;;;16.16;52.51;100001.84;4990905;28;20089;-79
2022/04/12 09:04:21;;;;;;;5.43;1.83;;;17.00;64.60;;;16.23;53.59;100008.09;4991583;28;20070;-79
2022/04/12 09:06:50;;;;;;;7.05;1.60;;;17.10;67.40;;;16.29;52.89;100000.81;4991936;28;20038;-79
2022/04/12 09:09:22;;;;;;;9.80;2.00;;;17.20;65.10;;;16.32;52.14;99995.69;4991679;28;20459;-79
2022/04/12 09:12:02;;;;;;;5.72;2.17;;;17.30;64.40;;;16.33;51.61;99999.28;4990683;28;20046;-79
2022/04/12 09:14:38;;;;;;;4.70;1.73;;;17.30;63.60;;;16.39;51.51;99993.69;4991309;28;20034;-79
2022/04/12 09:17:07;;;;;;;8.98;1.98;;;17.40;63.00;;;16.41;51.88;99997.03;4991265;28;20503;-79
2022/04/12 09:19:44;;;;;;;4.28;1.65;;;17.50;64.10;;;16.39;51.26;99996.44;4991140;28;20074;-79
2022/04/12 09:22:14;;;;;;;6.97;2.45;;;17.50;62.80;;;16.43;51.00;99996.81;4991103;28;20073;-79
2022/04/12 09:24:48;;;;;;;5.93;1.63;;;17.50;62.90;;;16.50;52.57;99994.75;4991173;28;20042;-79
2022/04/12 09:27:17;;;;;;;4.82;1.60;;;17.50;65.10;;;16.57;52.12;99980.94;4990537;28;20197;-79
2022/04/12 09:29:49;;;;;;;9.50;2.00;;;17.60;64.10;;;16.59;51.44;99985.09;4990705;28;20423;-79
2022/04/12 09:32:17;;;;;;;5.53;2.03;;;17.60;63.30;;;16.61;51.37;99990.38;4991111;28;20105;-80
2022/04/12 09:34:45;;;;;;;6.88;1.65;;;17.70;62.90;;;16.68;51.27;99993.00;4991015;28;20066;-79
2022/04/12 09:37:25;;;;;;;10.13;1.70;;;17.80;62.50;;;16.75;52.42;99993.72;4991130;28;20069;-79
2022/04/12 09:40:06;;;;;;;5.68;1.95;;;17.90;65.10;;;16.79;51.95;99993.03;4990189;28;20050;-80
2022/04/12 09:42:38;;;;;;;;;;;17.90;64.20;;;16.85;52.33;99982.16;4991526;28;20050;-79
2022/04/12 09:45:06;;;;;;;;;;;17.90;64.20;;;16.89;51.78;99991.63;4991292;28;19959;-77
2022/04/12 09:47:34;;;;;;;5.95;1.85;;;18.00;63.00;;;16.85;51.22;99982.16;4990843;28;19968;-77
2022/04/12 09:50:02;;;;;;;4.53;2.08;;;17.90;62.80;;;16.82;50.63;99978.00;4989892;28;20076;-77
2022/04/12 09:52:29;;;;;;;7.47;1.63;;;17.90;61.70;;;16.88;52.00;99976.19;4990497;28;20078;-77
2022/04/12 09:54:59;;;;;;;5.55;1.92;;;17.90;64.30;;;16.97;52.19;99967.34;4990605;28;20060;-77
2022/04/12 09:57:26;;;;;;;8.15;1.75;;;18.00;64.10;;;17.04;50.44;99964.47;4990537;28;20045;-77
2022/04/12 09:59:56;;;;;;;9.88;2.00;;;18.10;61.10;;;17.11;52.01;99962.41;4989614;28;20690;-77
2022/04/12 10:02:25;;;;;;;6.38;1.90;;;18.20;64.20;;;17.18;51.47;99963.13;4990635;28;20129;-77
2022/04/12 10:04:54;;;;;;;5.45;1.95;;;18.30;62.40;;;17.19;51.14;99955.72;4990366;28;20046;-77
2022/04/12 10:07:23;;;;;;;8.05;1.70;;;18.30;62.20;;;17.20;51.12;99957.41;4989166;28;20107;-77
2022/04/12 10:09:52;;;;;;;4.60;1.75;;;18.30;62.80;;;17.27;50.77;99951.75;4989728;28;20049;-77
2022/04/12 10:12:21;;;;;;;10.07;1.60;;;18.40;61.60;;;17.30;50.50;99946.59;4990417;28;20038;-77
2022/04/12 10:14:49;;;;;;;5.38;1.70;;;18.40;61.30;;;17.42;50.06;99954.84;4990508;28;20352;-77
2022/04/12 10:17:16;;;;;;;3.67;1.70;;;18.50;61.10;;;17.46;49.49;99945.00;4990395;28;20046;-77
2022/04/12 10:19:43;;;;;;;7.22;1.70;;;18.50;60.50;;;17.49;49.54;99954.69;4989988;28;20050;-77
2022/04/12 10:22:11;;;;;;;4.40;2.00;;;18.60;60.40;;;17.44;49.27;99952.69;4990083;28;20044;-77
2022/04/12 10:24:39;;;;;;;5.20;1.52;;;18.50;60.30;;;17.41;48.02;99952.34;4990311;28;20582;-77
2022/04/12 10:27:08;;;;;;;4.85;1.83;;;18.40;58.00;;;17.42;48.93;99943.84;4990087;28;20125;-77